sensor_id;sensor_type;location;lat;lon;timestamp;pressure;altitude;pressure_sealevel;temperature;humidity
55538;BME280;41383;51.418;7.286;2023-01-27T00:00:19;100512.16;;;4.20;84.29
55538;BME280;41383;51.418;7.286;2023-01-27T00:02:45;100522.56;;;4.30;83.39
55538;BME280;41383;51.418;7.286;2023-01-27T00:05:11;100525.25;;;4.30;83.33
55538;BME280;41383;51.418;7.286;2023-01-27T00:07:37;100509.69;;;4.32;82.83
55538;BME280;41383;51.418;7.286;2023-01-27T00:10:04;100502.81;;;4.30;82.49
55538;BME280;41383;51.418;7.286;2023-01-27T00:12:30;100506.75;;;4.27;82.39
55538;BME280;41383;51.418;7.286;2023-01-27T00:15:14;100510.88;;;4.23;82.40
55538;BME280;41383;51.418;7.286;2023-01-27T00:17:40;100512.13;;;4.14;82.44
55538;BME280;41383;51.418;7.286;2023-01-27T00:20:05;100512.13;;;4.14;82.49
55538;BME280;41383;51.418;7.286;2023-01-27T00:22:31;100522.28;;;4.12;82.55
55538;BME280;41383;51.418;7.286;2023-01-27T00:25:15;100517.06;;;4.03;81.89
55538;BME280;41383;51.418;7.286;2023-01-27T00:27:41;100536.56;;;3.92;82.62
55538;BME280;41383;51.418;7.286;2023-01-27T00:30:06;100522.69;;;4.02;82.61
55538;BME280;41383;51.418;7.286;2023-01-27T00:32:32;100533.22;;;3.90;82.94
55538;BME280;41383;51.418;7.286;2023-01-27T00:35:16;100521.41;;;3.97;83.17
55538;BME280;41383;51.418;7.286;2023-01-27T00:37:46;100521.66;;;4.09;82.42
55538;BME280;41383;51.418;7.286;2023-01-27T00:40:13;100521.28;;;4.13;82.67
55538;BME280;41383;51.418;7.286;2023-01-27T00:42:38;100520.63;;;4.11;82.67
55538;BME280;41383;51.418;7.286;2023-01-27T00:45:04;100523.72;;;4.07;82.19
55538;BME280;41383;51.418;7.286;2023-01-27T00:47:49;100518.56;;;4.13;82.16
55538;BME280;41383;51.418;7.286;2023-01-27T00:50:14;100528.28;;;4.00;83.18
55538;BME280;41383;51.418;7.286;2023-01-27T00:52:41;100523.53;;;4.09;82.85
55538;BME280;41383;51.418;7.286;2023-01-27T00:55:07;100524.19;;;4.18;83.46
55538;BME280;41383;51.418;7.286;2023-01-27T00:57:32;100526.66;;;4.19;82.27
55538;BME280;41383;51.418;7.286;2023-01-27T00:59:58;100526.66;;;4.19;82.61
55538;BME280;41383;51.418;7.286;2023-01-27T01:02:23;100526.28;;;4.29;82.25
55538;BME280;41383;51.418;7.286;2023-01-27T01:04:49;100523.97;;;4.19;81.95
55538;BME280;41383;51.418;7.286;2023-01-27T01:07:14;100526.25;;;4.16;82.56
55538;BME280;41383;51.418;7.286;2023-01-27T01:09:39;100535.41;;;4.22;82.56
55538;BME280;41383;51.418;7.286;2023-01-27T01:12:05;100533.31;;;4.17;82.63
55538;BME280;41383;51.418;7.286;2023-01-27T01:14:30;100542.88;;;4.19;82.89
55538;BME280;41383;51.418;7.286;2023-01-27T01:16:55;100539.34;;;4.19;82.77
55538;BME280;41383;51.418;7.286;2023-01-27T01:19:21;100543.66;;;4.06;83.55
55538;BME280;41383;51.418;7.286;2023-01-27T01:21:46;100542.22;;;4.17;83.34
55538;BME280;41383;51.418;7.286;2023-01-27T01:24:11;100546.63;;;4.25;82.87
55538;BME280;41383;51.418;7.286;2023-01-27T01:26:37;100547.44;;;4.26;83.08
55538;BME280;41383;51.418;7.286;2023-01-27T01:29:02;100565.09;;;4.15;83.21
55538;BME280;41383;51.418;7.286;2023-01-27T01:31:28;100562.56;;;4.06;83.77
55538;BME280;41383;51.418;7.286;2023-01-27T01:33:53;100558.59;;;4.02;84.20
55538;BME280;41383;51.418;7.286;2023-01-27T01:36:19;100560.59;;;3.87;84.15
55538;BME280;41383;51.418;7.286;2023-01-27T01:38:45;100558.69;;;3.73;84.61
55538;BME280;41383;51.418;7.286;2023-01-27T01:41:16;100571.00;;;3.90;84.43
55538;BME280;41383;51.418;7.286;2023-01-27T01:43:41;100568.09;;;3.91;84.20
55538;BME280;41383;51.418;7.286;2023-01-27T01:46:08;100565.75;;;3.81;84.01
55538;BME280;41383;51.418;7.286;2023-01-27T01:48:53;100569.56;;;3.94;83.98
55538;BME280;41383;51.418;7.286;2023-01-27T01:54:29;100577.66;;;3.94;83.35
55538;BME280;41383;51.418;7.286;2023-01-27T01:57:24;100573.13;;;4.01;84.16
55538;BME280;41383;51.418;7.286;2023-01-27T02:00:05;100573.72;;;3.96;83.33
55538;BME280;41383;51.418;7.286;2023-01-27T02:02:32;100572.59;;;3.77;83.64
55538;BME280;41383;51.418;7.286;2023-01-27T02:05:20;100576.03;;;3.64;84.81
55538;BME280;41383;51.418;7.286;2023-01-27T02:10:24;100572.31;;;3.65;84.97
55538;BME280;41383;51.418;7.286;2023-01-27T02:12:49;100571.69;;;3.63;84.99
55538;BME280;41383;51.418;7.286;2023-01-27T02:15:15;100571.72;;;3.70;85.71
55538;BME280;41383;51.418;7.286;2023-01-27T02:17:41;100578.94;;;3.62;84.00
55538;BME280;41383;51.418;7.286;2023-01-27T02:20:37;100576.94;;;3.43;84.84
55538;BME280;41383;51.418;7.286;2023-01-27T02:23:29;100578.13;;;3.62;84.90
55538;BME280;41383;51.418;7.286;2023-01-27T02:26:09;100570.25;;;3.67;85.18
55538;BME280;41383;51.418;7.286;2023-01-27T02:28:37;100575.84;;;3.66;84.39
55538;BME280;41383;51.418;7.286;2023-01-27T02:31:02;100578.41;;;3.74;84.58
55538;BME280;41383;51.418;7.286;2023-01-27T02:33:28;100577.78;;;3.79;83.85
55538;BME280;41383;51.418;7.286;2023-01-27T02:36:05;100563.88;;;3.75;83.70
55538;BME280;41383;51.418;7.286;2023-01-27T02:38:39;100565.75;;;3.81;84.01
55538;BME280;41383;51.418;7.286;2023-01-27T02:41:36;100577.03;;;3.92;83.69
55538;BME280;41383;51.418;7.286;2023-01-27T02:44:04;100576.78;;;3.87;83.23
55538;BME280;41383;51.418;7.286;2023-01-27T02:46:29;100558.72;;;3.87;83.42
55538;BME280;41383;51.418;7.286;2023-01-27T02:48:55;100559.69;;;3.72;84.04
55538;BME280;41383;51.418;7.286;2023-01-27T02:51:20;100559.09;;;3.77;83.99
55538;BME280;41383;51.418;7.286;2023-01-27T02:53:45;100567.03;;;3.85;83.66
55538;BME280;41383;51.418;7.286;2023-01-27T02:56:11;100564.72;;;3.82;84.07
55538;BME280;41383;51.418;7.286;2023-01-27T02:58:36;100564.56;;;3.91;83.35
55538;BME280;41383;51.418;7.286;2023-01-27T03:01:02;100569.16;;;3.97;83.09
55538;BME280;41383;51.418;7.286;2023-01-27T03:03:27;100564.78;;;3.96;83.38
55538;BME280;41383;51.418;7.286;2023-01-27T03:05:52;100561.69;;;3.99;83.11
55538;BME280;41383;51.418;7.286;2023-01-27T03:08:18;100556.47;;;3.91;83.16
55538;BME280;41383;51.418;7.286;2023-01-27T03:10:43;100563.00;;;3.68;83.66
55538;BME280;41383;51.418;7.286;2023-01-27T03:13:09;100554.72;;;3.69;84.54
55538;BME280;41383;51.418;7.286;2023-01-27T03:15:34;100552.44;;;3.73;84.39
55538;BME280;41383;51.418;7.286;2023-01-27T03:18:18;100559.25;;;3.69;84.14
55538;BME280;41383;51.418;7.286;2023-01-27T03:20:46;100553.00;;;3.61;84.52
55538;BME280;41383;51.418;7.286;2023-01-27T03:23:12;100553.47;;;3.72;84.53
55538;BME280;41383;51.418;7.286;2023-01-27T03:25:43;100553.75;;;3.84;83.85
55538;BME280;41383;51.418;7.286;2023-01-27T03:28:09;100553.75;;;3.84;83.72
55538;BME280;41383;51.418;7.286;2023-01-27T03:30:34;100560.16;;;3.83;83.63
55538;BME280;41383;51.418;7.286;2023-01-27T03:33:00;100567.25;;;3.84;83.38
55538;BME280;41383;51.418;7.286;2023-01-27T03:35:27;100557.50;;;3.90;83.90
55538;BME280;41383;51.418;7.286;2023-01-27T03:38:00;100566.03;;;3.93;83.13
55538;BME280;41383;51.418;7.286;2023-01-27T03:40:45;100565.56;;;3.83;83.95
55538;BME280;41383;51.418;7.286;2023-01-27T03:43:29;100560.97;;;3.77;83.74
55538;BME280;41383;51.418;7.286;2023-01-27T03:46:13;100570.69;;;3.71;84.37
55538;BME280;41383;51.418;7.286;2023-01-27T03:48:42;100555.81;;;3.89;84.25
55538;BME280;41383;51.418;7.286;2023-01-27T03:51:08;100563.75;;;3.97;84.21
55538;BME280;41383;51.418;7.286;2023-01-27T03:53:35;100566.91;;;4.07;83.63
55538;BME280;41383;51.418;7.286;2023-01-27T03:56:00;100566.03;;;3.93;83.15
55538;BME280;41383;51.418;7.286;2023-01-27T03:58:31;100568.09;;;3.91;83.97
55538;BME280;41383;51.418;7.286;2023-01-27T04:00:58;100564.38;;;3.99;83.45
55538;BME280;41383;51.418;7.286;2023-01-27T04:03:26;100570.81;;;3.98;83.83
55538;BME280;41383;51.418;7.286;2023-01-27T04:06:17;100569.13;;;3.90;84.38
55538;BME280;41383;51.418;7.286;2023-01-27T04:09:01;100565.00;;;4.01;84.01
55538;BME280;41383;51.418;7.286;2023-01-27T04:11:26;100558.59;;;4.02;83.63
55538;BME280;41383;51.418;7.286;2023-01-27T04:14:11;100569.41;;;4.02;83.91
55538;BME280;41383;51.418;7.286;2023-01-27T04:16:37;100569.56;;;3.94;84.43
55538;BME280;41383;51.418;7.286;2023-01-27T04:19:05;100571.25;;;4.02;83.76
55538;BME280;41383;51.418;7.286;2023-01-27T04:21:30;100565.00;;;3.94;84.18
55538;BME280;41383;51.418;7.286;2023-01-27T04:23:56;100573.53;;;3.98;84.13
55538;BME280;41383;51.418;7.286;2023-01-27T04:26:21;100573.09;;;3.94;84.22
55538;BME280;41383;51.418;7.286;2023-01-27T04:28:47;100568.97;;;3.99;84.83
55538;BME280;41383;51.418;7.286;2023-01-27T04:31:13;100574.31;;;3.92;84.50
55538;BME280;41383;51.418;7.286;2023-01-27T04:33:40;100574.38;;;4.05;84.53
55538;BME280;41383;51.418;7.286;2023-01-27T04:36:05;100578.59;;;4.15;83.70
55538;BME280;41383;51.418;7.286;2023-01-27T04:38:30;100577.69;;;4.01;83.89
55538;BME280;41383;51.418;7.286;2023-01-27T04:40:56;100587.88;;;4.05;84.39
55538;BME280;41383;51.418;7.286;2023-01-27T04:43:21;100586.59;;;4.01;83.63
55538;BME280;41383;51.418;7.286;2023-01-27T04:45:46;100587.78;;;3.85;84.62
55538;BME280;41383;51.418;7.286;2023-01-27T04:48:11;100583.06;;;3.94;84.81
55538;BME280;41383;51.418;7.286;2023-01-27T04:50:37;100581.41;;;4.00;84.87
55538;BME280;41383;51.418;7.286;2023-01-27T04:53:02;100570.63;;;4.00;85.08
55538;BME280;41383;51.418;7.286;2023-01-27T04:55:27;100584.13;;;4.00;84.49
55538;BME280;41383;51.418;7.286;2023-01-27T04:57:52;100574.16;;;4.00;85.09
55538;BME280;41383;51.418;7.286;2023-01-27T05:00:19;100584.31;;;3.98;85.53
55538;BME280;41383;51.418;7.286;2023-01-27T05:02:44;100592.41;;;3.98;84.97
55538;BME280;41383;51.418;7.286;2023-01-27T05:05:10;100594.31;;;4.04;84.74
55538;BME280;41383;51.418;7.286;2023-01-27T05:07:35;100598.69;;;4.12;84.61
55538;BME280;41383;51.418;7.286;2023-01-27T05:10:00;100603.84;;;4.07;85.42
55538;BME280;41383;51.418;7.286;2023-01-27T05:12:25;100598.44;;;4.00;85.09
55538;BME280;41383;51.418;7.286;2023-01-27T05:14:51;100599.72;;;4.04;85.15
55538;BME280;41383;51.418;7.286;2023-01-27T05:17:16;100607.34;;;3.94;85.33
55538;BME280;41383;51.418;7.286;2023-01-27T05:19:41;100601.56;;;4.04;85.96
55538;BME280;41383;51.418;7.286;2023-01-27T05:22:06;100594.94;;;4.06;85.86
55538;BME280;41383;51.418;7.286;2023-01-27T05:24:32;100600.50;;;3.98;85.67
55538;BME280;41383;51.418;7.286;2023-01-27T05:26:58;100596.75;;;3.99;85.68
55538;BME280;41383;51.418;7.286;2023-01-27T05:29:23;100594.69;;;4.01;85.33
55538;BME280;41383;51.418;7.286;2023-01-27T05:31:48;100603.84;;;4.07;85.76
55538;BME280;41383;51.418;7.286;2023-01-27T05:34:14;100608.78;;;3.90;86.09
55538;BME280;41383;51.418;7.286;2023-01-27T05:36:40;100607.03;;;3.75;86.50
55538;BME280;41383;51.418;7.286;2023-01-27T05:39:09;100613.59;;;4.01;87.01
55538;BME280;41383;51.418;7.286;2023-01-27T05:41:34;100603.59;;;3.95;86.36
55538;BME280;41383;51.418;7.286;2023-01-27T05:44:00;100609.88;;;4.02;86.05
55538;BME280;41383;51.418;7.286;2023-01-27T05:46:28;100613.75;;;3.93;86.48
55538;BME280;41383;51.418;7.286;2023-01-27T05:48:57;100614.22;;;4.03;86.84
55538;BME280;41383;51.418;7.286;2023-01-27T05:51:24;100615.53;;;4.14;86.19
55538;BME280;41383;51.418;7.286;2023-01-27T05:53:50;100620.66;;;4.02;85.84
55538;BME280;41383;51.418;7.286;2023-01-27T05:56:17;100623.84;;;3.77;87.24
55538;BME280;41383;51.418;7.286;2023-01-27T05:58:43;100618.78;;;3.96;87.51
55538;BME280;41383;51.418;7.286;2023-01-27T06:01:17;100629.22;;;4.13;86.20
55538;BME280;41383;51.418;7.286;2023-01-27T06:03:44;100628.59;;;4.11;86.02
55538;BME280;41383;51.418;7.286;2023-01-27T06:06:10;100624.06;;;4.18;85.57
55538;BME280;41383;51.418;7.286;2023-01-27T06:08:36;100629.03;;;4.21;85.89
55538;BME280;41383;51.418;7.286;2023-01-27T06:11:02;100628.44;;;4.26;85.20
55538;BME280;41383;51.418;7.286;2023-01-27T06:13:28;100624.72;;;4.27;85.18
55538;BME280;41383;51.418;7.286;2023-01-27T06:15:53;100624.69;;;4.20;85.09
55538;BME280;41383;51.418;7.286;2023-01-27T06:18:22;100614.31;;;4.17;85.43
55538;BME280;41383;51.418;7.286;2023-01-27T06:20:47;100619.91;;;4.22;85.33
55538;BME280;41383;51.418;7.286;2023-01-27T06:23:14;100625.09;;;4.17;85.83
55538;BME280;41383;51.418;7.286;2023-01-27T06:25:42;100624.00;;;4.11;86.08
55538;BME280;41383;51.418;7.286;2023-01-27T06:28:08;100619.06;;;4.15;85.77
55538;BME280;41383;51.418;7.286;2023-01-27T06:30:34;100629.66;;;4.23;85.88
55538;BME280;41383;51.418;7.286;2023-01-27T06:33:00;100621.78;;;4.15;85.47
55538;BME280;41383;51.418;7.286;2023-01-27T06:35:26;100638.34;;;4.12;85.20
55538;BME280;41383;51.418;7.286;2023-01-27T06:37:52;100637.78;;;4.23;85.37
55538;BME280;41383;51.418;7.286;2023-01-27T06:40:17;100628.44;;;4.19;85.39
55538;BME280;41383;51.418;7.286;2023-01-27T06:42:43;100637.22;;;4.35;84.58
55538;BME280;41383;51.418;7.286;2023-01-27T06:45:12;100647.13;;;4.27;85.00
55538;BME280;41383;51.418;7.286;2023-01-27T06:47:40;100650.63;;;4.21;85.38
55538;BME280;41383;51.418;7.286;2023-01-27T06:50:06;100647.50;;;4.17;85.11
55538;BME280;41383;51.418;7.286;2023-01-27T06:52:32;100649.81;;;4.20;85.38
55538;BME280;41383;51.418;7.286;2023-01-27T06:54:57;100650.84;;;4.19;85.53
55538;BME280;41383;51.418;7.286;2023-01-27T06:57:22;100656.88;;;4.22;85.08
55538;BME280;41383;51.418;7.286;2023-01-27T06:59:48;100662.06;;;4.23;85.89
55538;BME280;41383;51.418;7.286;2023-01-27T07:02:13;100672.22;;;4.21;85.38
55538;BME280;41383;51.418;7.286;2023-01-27T07:04:38;100661.16;;;4.09;86.01
55538;BME280;41383;51.418;7.286;2023-01-27T07:07:03;100671.00;;;4.17;85.84
55538;BME280;41383;51.418;7.286;2023-01-27T07:09:29;100663.13;;;4.22;86.17
55538;BME280;41383;51.418;7.286;2023-01-27T07:11:54;100681.06;;;4.01;86.92
55538;BME280;41383;51.418;7.286;2023-01-27T07:14:19;100684.66;;;4.15;87.16
55538;BME280;41383;51.418;7.286;2023-01-27T07:16:45;100680.84;;;4.03;86.78
55538;BME280;41383;51.418;7.286;2023-01-27T07:19:10;100681.53;;;4.12;87.30
55538;BME280;41383;51.418;7.286;2023-01-27T07:21:37;100695.28;;;4.17;87.03
55538;BME280;41383;51.418;7.286;2023-01-27T07:24:02;100681.25;;;4.00;86.96
55538;BME280;41383;51.418;7.286;2023-01-27T07:26:27;100694.81;;;4.06;87.00
55538;BME280;41383;51.418;7.286;2023-01-27T07:28:54;100693.41;;;4.17;87.13
55538;BME280;41383;51.418;7.286;2023-01-27T07:31:20;100689.63;;;4.12;86.29
55538;BME280;41383;51.418;7.286;2023-01-27T07:33:45;100694.59;;;4.08;86.80
55538;BME280;41383;51.418;7.286;2023-01-27T07:36:10;100695.38;;;4.02;87.07
55538;BME280;41383;51.418;7.286;2023-01-27T07:38:35;100692.81;;;3.58;88.74
55538;BME280;41383;51.418;7.286;2023-01-27T07:41:05;100702.75;;;3.57;89.63
55538;BME280;41383;51.418;7.286;2023-01-27T07:43:31;100706.59;;;3.70;89.70
55538;BME280;41383;51.418;7.286;2023-01-27T07:45:56;100694.66;;;3.57;89.86
55538;BME280;41383;51.418;7.286;2023-01-27T07:48:22;100697.81;;;3.61;90.00
55538;BME280;41383;51.418;7.286;2023-01-27T07:50:48;100701.06;;;3.78;90.19
55538;BME280;41383;51.418;7.286;2023-01-27T07:53:13;100704.63;;;3.85;89.68
55538;BME280;41383;51.418;7.286;2023-01-27T07:55:39;100703.00;;;3.91;89.73
55538;BME280;41383;51.418;7.286;2023-01-27T07:58:04;100697.97;;;3.81;89.16
55538;BME280;41383;51.418;7.286;2023-01-27T08:00:30;100703.78;;;3.85;89.66
55538;BME280;41383;51.418;7.286;2023-01-27T08:02:56;100706.28;;;3.87;89.22
55538;BME280;41383;51.418;7.286;2023-01-27T08:05:22;100702.06;;;3.77;90.42
55538;BME280;41383;51.418;7.286;2023-01-27T08:07:49;100703.78;;;3.85;89.97
55538;BME280;41383;51.418;7.286;2023-01-27T08:10:15;100711.50;;;3.88;89.80
55538;BME280;41383;51.418;7.286;2023-01-27T08:12:42;100702.56;;;3.88;89.88
55538;BME280;41383;51.418;7.286;2023-01-27T08:15:07;100709.88;;;3.94;89.12
55538;BME280;41383;51.418;7.286;2023-01-27T08:17:33;100709.66;;;3.95;89.55
55538;BME280;41383;51.418;7.286;2023-01-27T08:19:58;100717.88;;;3.80;90.38
55538;BME280;41383;51.418;7.286;2023-01-27T08:22:23;100718.25;;;3.77;91.04
55538;BME280;41383;51.418;7.286;2023-01-27T08:24:49;100709.19;;;3.85;90.61
55538;BME280;41383;51.418;7.286;2023-01-27T08:27:16;100714.94;;;3.75;90.53
55538;BME280;41383;51.418;7.286;2023-01-27T08:29:41;100709.88;;;3.94;90.89
55538;BME280;41383;51.418;7.286;2023-01-27T08:32:07;100707.66;;;4.04;90.71
55538;BME280;41383;51.418;7.286;2023-01-27T08:34:33;100710.53;;;4.03;89.58
55538;BME280;41383;51.418;7.286;2023-01-27T08:36:58;100709.09;;;4.00;89.93
55538;BME280;41383;51.418;7.286;2023-01-27T08:39:24;100721.69;;;3.93;90.28
55538;BME280;41383;51.418;7.286;2023-01-27T08:41:49;100722.78;;;3.99;90.71
55538;BME280;41383;51.418;7.286;2023-01-27T08:44:15;100719.63;;;3.95;90.30
55538;BME280;41383;51.418;7.286;2023-01-27T08:46:40;100728.22;;;4.05;90.22
55538;BME280;41383;51.418;7.286;2023-01-27T08:49:05;100718.53;;;4.18;90.06
55538;BME280;41383;51.418;7.286;2023-01-27T08:51:31;100720.28;;;4.32;89.29
55538;BME280;41383;51.418;7.286;2023-01-27T08:53:56;100723.22;;;4.38;88.69
55538;BME280;41383;51.418;7.286;2023-01-27T08:56:22;100725.81;;;3.89;89.80
55538;BME280;41383;51.418;7.286;2023-01-27T08:58:47;100729.78;;;3.93;91.00
55538;BME280;41383;51.418;7.286;2023-01-27T09:01:14;100728.63;;;4.02;90.65
55538;BME280;41383;51.418;7.286;2023-01-27T09:03:40;100733.47;;;4.14;90.22
55538;BME280;41383;51.418;7.286;2023-01-27T09:06:07;100735.59;;;4.25;89.99
55538;BME280;41383;51.418;7.286;2023-01-27T09:08:33;100739.97;;;4.26;90.00
55538;BME280;41383;51.418;7.286;2023-01-27T09:11:06;100743.31;;;4.28;89.42
55538;BME280;41383;51.418;7.286;2023-01-27T09:13:32;100741.19;;;4.17;90.24
55538;BME280;41383;51.418;7.286;2023-01-27T09:15:57;100745.03;;;4.07;89.88
55538;BME280;41383;51.418;7.286;2023-01-27T09:18:24;100749.28;;;4.17;89.79
55538;BME280;41383;51.418;7.286;2023-01-27T09:20:49;100755.31;;;4.19;89.96
55538;BME280;41383;51.418;7.286;2023-01-27T09:23:15;100754.09;;;4.28;89.82
55538;BME280;41383;51.418;7.286;2023-01-27T09:25:40;100757.59;;;4.22;89.56
55538;BME280;41383;51.418;7.286;2023-01-27T09:28:05;100765.22;;;4.12;89.77
55538;BME280;41383;51.418;7.286;2023-01-27T09:30:33;100770.22;;;4.15;89.67
55538;BME280;41383;51.418;7.286;2023-01-27T09:32:59;100775.88;;;4.20;90.10
55538;BME280;41383;51.418;7.286;2023-01-27T09:35:30;100772.72;;;4.16;90.08
55538;BME280;41383;51.418;7.286;2023-01-27T09:37:59;100773.00;;;4.28;90.41
55538;BME280;41383;51.418;7.286;2023-01-27T09:40:35;100766.09;;;3.90;90.52
55538;BME280;41383;51.418;7.286;2023-01-27T09:43:35;100769.47;;;3.99;91.22
55538;BME280;41383;51.418;7.286;2023-01-27T09:49:32;100787.50;;;3.92;91.61
55538;BME280;41383;51.418;7.286;2023-01-27T09:52:32;100784.88;;;4.05;91.73
55538;BME280;41383;51.418;7.286;2023-01-27T09:57:44;100782.09;;;4.20;90.77
55538;BME280;41383;51.418;7.286;2023-01-27T10:00:36;100789.44;;;4.34;90.79
55538;BME280;41383;51.418;7.286;2023-01-27T10:11:44;100788.09;;;4.16;91.65
55538;BME280;41383;51.418;7.286;2023-01-27T10:15:37;100787.78;;;4.04;91.36
55538;BME280;41383;51.418;7.286;2023-01-27T10:18:05;100788.72;;;4.18;91.39
55538;BME280;41383;51.418;7.286;2023-01-27T10:21:03;100787.16;;;4.30;90.99
55538;BME280;41383;51.418;7.286;2023-01-27T10:23:54;100793.13;;;4.26;91.26
55538;BME280;41383;51.418;7.286;2023-01-27T10:29:26;100794.19;;;4.03;91.12
55538;BME280;41383;51.418;7.286;2023-01-27T10:32:01;100785.38;;;4.16;92.19
55538;BME280;41383;51.418;7.286;2023-01-27T10:34:51;100788.81;;;4.31;91.67
55538;BME280;41383;51.418;7.286;2023-01-27T10:40:05;100784.03;;;4.34;90.48
55538;BME280;41383;51.418;7.286;2023-01-27T10:42:43;100794.03;;;4.40;90.25
55538;BME280;41383;51.418;7.286;2023-01-27T10:48:10;100789.56;;;4.18;91.67
55538;BME280;41383;51.418;7.286;2023-01-27T10:50:45;100790.41;;;4.19;91.59
55538;BME280;41383;51.418;7.286;2023-01-27T10:53:20;100782.31;;;4.19;91.67
55538;BME280;41383;51.418;7.286;2023-01-27T10:56:19;100791.75;;;4.37;91.89
55538;BME280;41383;51.418;7.286;2023-01-27T11:01:24;100787.53;;;4.27;90.78
55538;BME280;41383;51.418;7.286;2023-01-27T11:04:06;100781.25;;;4.20;91.28
55538;BME280;41383;51.418;7.286;2023-01-27T11:06:36;100793.47;;;4.16;92.12
55538;BME280;41383;51.418;7.286;2023-01-27T11:09:34;100785.63;;;4.21;92.67
55538;BME280;41383;51.418;7.286;2023-01-27T11:12:04;100782.88;;;4.14;92.67
55538;BME280;41383;51.418;7.286;2023-01-27T11:14:50;100772.28;;;4.13;93.13
55538;BME280;41383;51.418;7.286;2023-01-27T11:17:27;100770.06;;;4.23;92.92
55538;BME280;41383;51.418;7.286;2023-01-27T11:22:26;100766.63;;;4.07;93.49
55538;BME280;41383;51.418;7.286;2023-01-27T11:25:05;100769.72;;;4.33;92.97
55538;BME280;41383;51.418;7.286;2023-01-27T11:28:05;100770.16;;;4.37;92.26
55538;BME280;41383;51.418;7.286;2023-01-27T11:30:45;100771.97;;;4.29;92.33
55538;BME280;41383;51.418;7.286;2023-01-27T11:33:28;100775.56;;;4.37;92.42
55538;BME280;41383;51.418;7.286;2023-01-27T11:35:55;100769.84;;;4.53;91.88
55538;BME280;41383;51.418;7.286;2023-01-27T11:38:22;100766.53;;;4.58;92.05
55538;BME280;41383;51.418;7.286;2023-01-27T11:40:49;100770.22;;;4.50;91.31
55538;BME280;41383;51.418;7.286;2023-01-27T11:43:18;100770.22;;;4.50;91.30
55538;BME280;41383;51.418;7.286;2023-01-27T11:45:44;100768.81;;;4.19;92.18
55538;BME280;41383;51.418;7.286;2023-01-27T11:48:15;100764.91;;;4.28;92.42
55538;BME280;41383;51.418;7.286;2023-01-27T11:50:43;100762.13;;;4.50;92.16
55538;BME280;41383;51.418;7.286;2023-01-27T11:55:41;100766.16;;;4.68;90.46
55538;BME280;41383;51.418;7.286;2023-01-27T11:58:11;100772.84;;;4.79;90.02
55538;BME280;41383;51.418;7.286;2023-01-27T12:00:42;100769.84;;;4.53;89.41
55538;BME280;41383;51.418;7.286;2023-01-27T12:03:22;100763.22;;;4.63;90.08
55538;BME280;41383;51.418;7.286;2023-01-27T12:05:54;100759.94;;;4.74;89.60
55538;BME280;41383;51.418;7.286;2023-01-27T12:08:46;100755.97;;;4.70;89.00
55538;BME280;41383;51.418;7.286;2023-01-27T12:13:47;100751.16;;;4.59;89.73
55538;BME280;41383;51.418;7.286;2023-01-27T12:16:13;100745.13;;;4.57;89.91
55538;BME280;41383;51.418;7.286;2023-01-27T12:18:54;100745.69;;;4.45;90.24
55538;BME280;41383;51.418;7.286;2023-01-27T12:21:21;100741.56;;;4.56;90.06
55538;BME280;41383;51.418;7.286;2023-01-27T12:23:58;100743.91;;;4.66;89.09
55538;BME280;41383;51.418;7.286;2023-01-27T12:26:50;100738.97;;;4.76;88.88
55538;BME280;41383;51.418;7.286;2023-01-27T12:29:22;100737.69;;;4.72;88.70
55538;BME280;41383;51.418;7.286;2023-01-27T12:31:52;100734.28;;;4.50;87.81
55538;BME280;41383;51.418;7.286;2023-01-27T12:34:30;100746.56;;;4.52;88.99
55538;BME280;41383;51.418;7.286;2023-01-27T12:36:57;100738.06;;;4.62;88.82
55538;BME280;41383;51.418;7.286;2023-01-27T12:41:56;100741.81;;;4.61;88.09
55538;BME280;41383;51.418;7.286;2023-01-27T12:44:21;100734.34;;;4.70;88.11
55538;BME280;41383;51.418;7.286;2023-01-27T12:47:23;100734.16;;;4.65;87.04
55538;BME280;41383;51.418;7.286;2023-01-27T12:49:49;100741.47;;;4.36;87.29
55538;BME280;41383;51.418;7.286;2023-01-27T12:52:19;100733.63;;;4.41;86.89
55538;BME280;41383;51.418;7.286;2023-01-27T12:54:45;100733.63;;;4.41;87.71
55538;BME280;41383;51.418;7.286;2023-01-27T12:57:16;100738.69;;;4.58;87.71
55538;BME280;41383;51.418;7.286;2023-01-27T12:59:51;100729.59;;;4.65;86.92
55538;BME280;41383;51.418;7.286;2023-01-27T13:02:21;100735.00;;;4.72;86.59
55538;BME280;41383;51.418;7.286;2023-01-27T13:04:58;100734.34;;;4.70;85.31
55538;BME280;41383;51.418;7.286;2023-01-27T13:07:43;100737.91;;;4.71;86.05
55538;BME280;41383;51.418;7.286;2023-01-27T13:10:18;100728.53;;;4.66;85.38
55538;BME280;41383;51.418;7.286;2023-01-27T13:12:57;100738.56;;;4.79;85.94
55538;BME280;41383;51.418;7.286;2023-01-27T13:15:24;100727.97;;;4.85;85.43
55538;BME280;41383;51.418;7.286;2023-01-27T13:17:57;100730.00;;;4.69;85.12
55538;BME280;41383;51.418;7.286;2023-01-27T13:23:08;100733.09;;;4.66;85.60
55538;BME280;41383;51.418;7.286;2023-01-27T13:28:22;100747.28;;;4.75;85.22
55538;BME280;41383;51.418;7.286;2023-01-27T13:30:53;100740.13;;;4.60;85.30
55538;BME280;41383;51.418;7.286;2023-01-27T13:33:31;100748.31;;;4.74;84.43
55538;BME280;41383;51.418;7.286;2023-01-27T13:36:05;100754.38;;;4.83;84.59
55538;BME280;41383;51.418;7.286;2023-01-27T13:38:51;100755.97;;;4.63;84.00
55538;BME280;41383;51.418;7.286;2023-01-27T13:41:25;100759.03;;;4.53;85.51
55538;BME280;41383;51.418;7.286;2023-01-27T13:44:16;100750.53;;;4.57;84.33
55538;BME280;41383;51.418;7.286;2023-01-27T13:46:44;100757.50;;;4.44;84.34
55538;BME280;41383;51.418;7.286;2023-01-27T13:49:29;100764.44;;;4.53;85.60
55538;BME280;41383;51.418;7.286;2023-01-27T13:51:56;100773.28;;;4.76;85.19
55538;BME280;41383;51.418;7.286;2023-01-27T13:54:21;100767.41;;;4.72;84.64
55538;BME280;41383;51.418;7.286;2023-01-27T13:57:06;100769.47;;;4.70;84.62
55538;BME280;41383;51.418;7.286;2023-01-27T14:02:26;100772.75;;;4.59;84.20
55538;BME280;41383;51.418;7.286;2023-01-27T14:08:05;100774.59;;;4.16;86.14